Time;durP1;ratioP1;P1;durP2;ratioP2;P2;SDS_P1;SDS_P2;PMS_P1;PMS_P2;Temp;Humidity;BMP_temperature;BMP_pressure;BME280_temperature;BME280_humidity;BME280_pressure;Samples;Min_cycle;Max_cycle;Signal;HPM_P1;HPM_P2
2023/04/18 00:01:44;;;;;;;18.67;11.43;;;8.40;99.90;;;;;;5055318;28;20626;-86
2023/04/18 00:04:10;;;;;;;19.17;11.52;;;8.40;99.90;;;;;;5056211;28;20074;-87
2023/04/18 00:06:36;;;;;;;18.33;10.32;;;8.30;99.90;;;;;;5044498;28;20556;-86
2023/04/18 00:09:02;;;;;;;21.23;12.20;;;8.30;99.90;;;;;;5052389;28;20021;-86
2023/04/18 00:11:29;;;;;;;23.92;14.60;;;8.30;99.90;;;;;;5057611;28;20021;-87
2023/04/18 00:13:56;;;;;;;37.35;19.80;;;8.30;99.90;;;;;;5041665;28;20035;-86
2023/04/18 00:16:22;;;;;;;34.60;18.55;;;8.30;99.90;;;;;;5049894;28;20121;-86
2023/04/18 00:18:48;;;;;;;37.45;18.48;;;8.20;99.90;;;;;;5055001;28;20067;-87
2023/04/18 00:21:15;;;;;;;38.40;19.23;;;8.20;99.90;;;;;;5056611;28;20032;-87
2023/04/18 00:23:41;;;;;;;41.05;21.20;;;8.20;99.90;;;;;;5053199;28;20024;-87
2023/04/18 00:26:06;;;;;;;31.38;17.02;;;8.10;99.90;;;;;;5045328;28;20449;-87
2023/04/18 00:28:32;;;;;;;31.02;15.70;;;8.10;99.90;;;;;;5053460;28;20193;-87
2023/04/18 00:30:57;;;;;;;18.77;11.68;;;8.00;99.90;;;;;;5046445;28;20119;-87
2023/04/18 00:33:23;;;;;;;18.33;10.32;;;8.00;99.90;;;;;;5056839;28;20041;-87
2023/04/18 00:35:48;;;;;;;19.55;10.57;;;7.90;99.90;;;;;;5055901;28;20021;-87
2023/04/18 00:38:14;;;;;;;13.38;8.73;;;7.90;99.90;;;;;;5054496;28;20029;-87
2023/04/18 00:40:39;;;;;;;14.50;9.18;;;7.90;99.90;;;;;;5055528;28;20079;-86
2023/04/18 00:43:11;;;;;;;14.07;8.30;;;7.80;99.90;;;;;;5047482;28;20078;-87
2023/04/18 00:45:36;;;;;;;14.75;9.23;;;7.80;99.90;;;;;;5051221;28;20017;-86
2023/04/18 00:48:02;;;;;;;17.10;9.40;;;7.70;99.90;;;;;;5055004;28;20028;-87
2023/04/18 00:50:28;;;;;;;16.65;9.55;;;7.70;99.90;;;;;;5055957;28;20112;-87
2023/04/18 00:52:53;;;;;;;17.58;10.10;;;7.60;99.90;;;;;;5056269;28;20033;-87
2023/04/18 00:55:20;;;;;;;17.17;9.85;;;7.60;99.90;;;;;;5055504;28;20049;-87
2023/04/18 00:57:45;;;;;;;19.83;11.18;;;7.60;99.90;;;;;;5055161;28;20043;-87
2023/04/18 01:00:12;;;;;;;20.17;12.23;;;7.50;99.90;;;;;;5055811;28;20028;-87
2023/04/18 01:02:38;;;;;;;24.48;11.75;;;7.50;99.90;;;;;;5044648;28;20025;-87
2023/04/18 01:05:05;;;;;;;18.83;10.82;;;7.40;99.90;;;;;;5057339;28;20037;-87
2023/04/18 01:07:36;;;;;;;16.35;10.18;;;7.30;99.90;;;;;;5052265;28;20721;-87
2023/04/18 01:10:03;;;;;;;20.15;10.68;;;7.30;99.90;;;;;;5055659;28;20021;-87
2023/04/18 01:12:28;;;;;;;17.38;10.70;;;7.30;99.90;;;;;;5039632;28;20532;-87
2023/04/18 01:14:54;;;;;;;19.35;10.90;;;7.20;99.90;;;;;;5056109;28;20094;-87
2023/04/18 01:17:22;;;;;;;20.45;10.65;;;7.20;99.90;;;;;;5053917;28;20079;-87
2023/04/18 01:19:48;;;;;;;23.25;11.50;;;7.10;99.90;;;;;;5052971;28;20059;-87
2023/04/18 01:22:14;;;;;;;22.75;11.18;;;7.10;99.90;;;;;;5053398;28;20033;-86
2023/04/18 01:24:40;;;;;;;25.52;11.43;;;7.10;99.90;;;;;;5050787;28;20021;-86
2023/04/18 01:27:09;;;;;;;20.27;12.20;;;7.00;99.90;;;;;;5040850;28;20021;-87
2023/04/18 01:29:35;;;;;;;22.02;10.05;;;7.00;99.90;;;;;;5055984;28;20187;-87
2023/04/18 01:32:01;;;;;;;22.55;11.15;;;6.90;99.90;;;;;;5055694;28;20037;-86
2023/04/18 01:34:27;;;;;;;18.55;9.15;;;6.90;99.90;;;;;;5054699;28;20090;-87
2023/04/18 01:36:52;;;;;;;24.30;10.23;;;6.80;99.90;;;;;;5052129;28;20083;-87
2023/04/18 01:39:18;;;;;;;18.05;9.48;;;6.80;99.90;;;;;;5053126;28;20079;-88
2023/04/18 01:41:43;;;;;;;15.50;9.18;;;6.80;99.90;;;;;;5055324;28;20021;-87
2023/04/18 01:44:09;;;;;;;16.63;9.52;;;6.70;99.90;;;;;;5048868;28;20071;-87
2023/04/18 01:46:35;;;;;;;16.35;8.80;;;6.80;99.90;;;;;;5048198;28;20424;-86
2023/04/18 01:49:00;;;;;;;14.18;8.88;;;6.70;99.90;;;;;;5045015;28;20029;-87
2023/04/18 01:51:27;;;;;;;15.73;8.55;;;6.70;99.90;;;;;;5047927;28;20033;-87
2023/04/18 01:53:52;;;;;;;14.82;8.77;;;6.60;99.90;;;;;;5054456;28;20037;-87
2023/04/18 01:56:18;;;;;;;17.02;8.85;;;6.60;99.90;;;;;;5054080;28;20036;-86
2023/04/18 01:58:44;;;;;;;13.63;7.80;;;6.60;99.90;;;;;;5041395;28;20025;-87
2023/04/18 02:01:09;;;;;;;14.65;8.85;;;6.50;99.90;;;;;;5052667;28;20036;-88
2023/04/18 02:03:35;;;;;;;18.73;8.43;;;6.50;99.90;;;;;;5051261;28;20040;-87
2023/04/18 02:06:01;;;;;;;15.23;8.57;;;6.50;99.90;;;;;;5049736;28;20540;-87
2023/04/18 02:08:27;;;;;;;14.05;8.75;;;6.40;99.90;;;;;;5034947;28;20034;-87
2023/04/18 02:10:52;;;;;;;13.07;7.78;;;6.40;99.90;;;;;;5040282;28;20075;-87
2023/04/18 02:13:18;;;;;;;15.65;8.60;;;6.40;99.90;;;;;;5043992;28;20035;-87
2023/04/18 02:15:46;;;;;;;11.90;8.07;;;6.30;99.90;;;;;;5053667;28;20071;-87
2023/04/18 02:18:12;;;;;;;15.13;9.35;;;6.30;99.90;;;;;;5042306;28;20104;-87
2023/04/18 02:20:38;;;;;;;14.13;8.40;;;6.30;99.90;;;;;;5038287;28;20041;-87
2023/04/18 02:23:03;;;;;;;12.35;7.88;;;6.20;99.90;;;;;;5052041;28;20083;-87
2023/04/18 02:25:29;;;;;;;14.60;8.50;;;6.20;99.90;;;;;;5045409;28;20025;-87
2023/04/18 02:27:56;;;;;;;13.23;7.95;;;6.20;99.90;;;;;;5052756;28;20202;-87
2023/04/18 02:30:22;;;;;;;16.73;8.73;;;6.20;99.90;;;;;;5049519;28;20028;-87
2023/04/18 02:32:52;;;;;;;13.48;7.90;;;6.10;99.90;;;;;;5046719;28;20064;-87
2023/04/18 02:35:18;;;;;;;14.05;8.25;;;6.10;99.90;;;;;;5050604;28;20032;-86
2023/04/18 02:37:44;;;;;;;16.52;8.10;;;6.00;99.90;;;;;;5049876;28;20079;-86
2023/04/18 02:40:10;;;;;;;14.95;9.05;;;6.00;99.90;;;;;;5049136;28;20033;-87
2023/04/18 02:42:35;;;;;;;15.20;8.40;;;6.00;99.90;;;;;;5045383;28;20025;-87
2023/04/18 02:45:01;;;;;;;15.75;8.40;;;6.00;99.90;;;;;;5049413;28;20025;-87
2023/04/18 02:47:26;;;;;;;11.77;8.07;;;6.00;99.90;;;;;;5052541;28;20025;-87
2023/04/18 02:49:52;;;;;;;13.48;7.82;;;5.90;99.90;;;;;;5053704;28;20090;-87
2023/04/18 02:52:17;;;;;;;16.30;8.70;;;5.90;99.90;;;;;;5043745;28;20095;-87
2023/04/18 02:54:43;;;;;;;13.52;6.93;;;5.90;99.90;;;;;;5041952;28;20052;-88
2023/04/18 02:57:08;;;;;;;13.15;8.10;;;5.90;99.90;;;;;;5038070;28;20037;-87
2023/04/18 02:59:34;;;;;;;11.85;8.10;;;5.90;99.90;;;;;;5051204;28;20025;-88
2023/04/18 03:01:59;;;;;;;14.80;8.15;;;5.90;99.90;;;;;;5047764;28;20021;-87
2023/04/18 03:04:25;;;;;;;14.63;8.55;;;5.80;99.90;;;;;;5049329;28;20029;-87
2023/04/18 03:06:52;;;;;;;15.80;8.40;;;5.80;99.90;;;;;;5038752;28;20398;-87
2023/04/18 03:09:17;;;;;;;13.98;8.50;;;5.80;99.90;;;;;;5035057;28;20107;-87
2023/04/18 03:11:43;;;;;;;13.45;8.50;;;5.70;99.90;;;;;;5046064;28;20073;-88
2023/04/18 03:14:08;;;;;;;15.15;7.65;;;5.70;99.90;;;;;;5048001;28;20514;-87
2023/04/18 03:16:34;;;;;;;13.15;7.00;;;5.70;99.90;;;;;;5046797;28;20029;-87
2023/04/18 03:19:00;;;;;;;17.02;8.05;;;5.70;99.90;;;;;;5051034;28;20025;-87
2023/04/18 03:21:26;;;;;;;13.65;8.43;;;5.60;99.90;;;;;;5049941;28;20401;-88
2023/04/18 03:23:52;;;;;;;16.02;7.30;;;5.70;99.90;;;;;;5051303;28;20041;-87
2023/04/18 03:26:18;;;;;;;13.77;8.43;;;5.60;99.90;;;;;;5050939;28;20477;-87
2023/04/18 03:28:44;;;;;;;14.73;8.45;;;5.60;99.90;;;;;;5054374;28;20032;-88
2023/04/18 03:31:09;;;;;;;18.25;9.30;;;5.60;99.90;;;;;;5054818;28;20103;-88
2023/04/18 03:33:35;;;;;;;15.07;7.68;;;5.60;99.90;;;;;;5056969;28;20064;-88
2023/04/18 03:36:01;;;;;;;12.40;7.70;;;5.60;99.90;;;;;;5057109;28;20032;-88
2023/04/18 03:38:26;;;;;;;15.85;7.30;;;5.60;99.90;;;;;;5054775;28;20027;-87
2023/04/18 03:40:52;;;;;;;14.65;7.65;;;5.60;99.90;;;;;;5051107;28;20029;-87
2023/04/18 03:43:19;;;;;;;14.10;9.15;;;5.60;99.90;;;;;;5045617;28;20442;-87
2023/04/18 03:45:46;;;;;;;13.45;8.50;;;5.60;99.90;;;;;;5049402;28;20023;-87
2023/04/18 03:48:12;;;;;;;14.75;8.07;;;5.60;99.90;;;;;;5056885;28;20021;-87
2023/04/18 03:50:39;;;;;;;15.32;8.88;;;5.60;99.90;;;;;;5056717;28;20496;-87
2023/04/18 03:53:04;;;;;;;15.07;8.50;;;5.50;99.90;;;;;;5040588;28;20068;-87
2023/04/18 03:55:30;;;;;;;16.50;8.95;;;5.50;99.90;;;;;;5047333;28;20049;-87
2023/04/18 03:57:57;;;;;;;13.75;8.52;;;5.50;99.90;;;;;;5044965;28;20029;-88
2023/04/18 04:00:24;;;;;;;13.93;8.98;;;5.50;99.90;;;;;;5053790;28;20037;-87
2023/04/18 04:02:49;;;;;;;19.52;9.25;;;5.50;99.90;;;;;;5055282;28;20112;-88
2023/04/18 04:05:15;;;;;;;12.85;7.63;;;5.50;99.90;;;;;;5054388;28;20072;-87
2023/04/18 04:07:41;;;;;;;16.70;8.65;;;5.50;99.90;;;;;;5047381;28;20410;-88
2023/04/18 04:10:07;;;;;;;15.77;8.57;;;5.40;99.90;;;;;;5056799;28;20036;-87
2023/04/18 04:12:32;;;;;;;14.98;8.32;;;5.50;99.90;;;;;;5053370;28;20032;-87
2023/04/18 04:14:58;;;;;;;14.75;7.22;;;5.50;99.90;;;;;;5053489;28;20021;-87
2023/04/18 04:17:23;;;;;;;14.65;7.93;;;5.40;99.90;;;;;;5048535;28;20531;-87
2023/04/18 04:19:50;;;;;;;15.80;9.32;;;5.40;99.90;;;;;;5044792;28;20574;-87
2023/04/18 04:22:15;;;;;;;12.75;8.32;;;5.40;99.90;;;;;;5053677;28;20029;-87
2023/04/18 04:24:41;;;;;;;14.18;8.48;;;5.50;99.90;;;;;;5054635;28;20370;-87
2023/04/18 04:27:07;;;;;;;14.80;8.73;;;5.40;99.90;;;;;;5056559;28;20017;-88
2023/04/18 04:29:34;;;;;;;16.40;8.93;;;5.40;99.90;;;;;;5054632;28;20025;-87
2023/04/18 04:31:59;;;;;;;13.60;8.05;;;5.40;99.90;;;;;;5053308;28;20025;-88
2023/04/18 04:34:25;;;;;;;13.90;9.43;;;5.40;99.90;;;;;;5045516;28;20049;-88
2023/04/18 04:36:52;;;;;;;15.18;8.68;;;5.40;99.90;;;;;;5053471;28;20053;-88
2023/04/18 04:39:18;;;;;;;16.08;7.72;;;5.40;99.90;;;;;;5052907;28;20141;-88
2023/04/18 04:41:45;;;;;;;13.63;8.80;;;5.40;99.90;;;;;;5047302;28;20076;-88
2023/04/18 04:44:11;;;;;;;14.10;8.20;;;5.40;99.90;;;;;;5045344;28;20021;-88
2023/04/18 04:46:39;;;;;;;14.25;8.70;;;5.40;99.90;;;;;;5057277;28;20462;-88
2023/04/18 04:49:04;;;;;;;15.05;8.82;;;5.40;99.90;;;;;;5056204;28;20055;-87
2023/04/18 04:51:30;;;;;;;15.20;8.90;;;5.30;99.90;;;;;;5051489;28;20029;-88
2023/04/18 04:53:56;;;;;;;15.35;8.82;;;5.30;99.90;;;;;;5040047;28;20105;-87
2023/04/18 04:56:22;;;;;;;15.23;8.35;;;5.30;99.90;;;;;;5051567;28;20029;-87
2023/04/18 04:58:48;;;;;;;15.45;8.63;;;5.30;99.90;;;;;;5053954;28;20031;-87
2023/04/18 05:01:13;;;;;;;13.93;8.52;;;5.30;99.90;;;;;;5051474;28;20083;-88
2023/04/18 05:03:39;;;;;;;12.73;8.65;;;5.30;99.90;;;;;;5052264;28;20033;-88
2023/04/18 05:06:05;;;;;;;13.85;8.55;;;5.40;99.90;;;;;;5047513;28;20420;-88
2023/04/18 05:08:30;;;;;;;13.20;8.75;;;5.40;99.90;;;;;;5051545;28;20407;-87
2023/04/18 05:10:56;;;;;;;13.05;7.75;;;5.40;99.90;;;;;;5054179;28;20028;-87
2023/04/18 05:13:21;;;;;;;12.50;8.05;;;5.60;99.90;;;;;;5049522;28;20037;-87
2023/04/18 05:15:47;;;;;;;14.52;8.38;;;5.70;99.90;;;;;;5047968;28;20021;-87
2023/04/18 05:18:15;;;;;;;15.82;9.75;;;5.80;99.90;;;;;;5052898;28;20032;-87
2023/04/18 05:20:40;;;;;;;15.98;8.93;;;5.90;99.90;;;;;;5052324;28;20039;-87
2023/04/18 05:23:06;;;;;;;13.68;8.07;;;6.00;99.90;;;;;;5051575;28;20056;-87
2023/04/18 05:25:32;;;;;;;13.52;7.65;;;6.10;99.90;;;;;;5043593;28;20056;-87
2023/04/18 05:28:00;;;;;;;13.65;8.23;;;6.20;99.90;;;;;;5052585;28;20072;-86
2023/04/18 05:30:25;;;;;;;13.15;7.88;;;6.30;99.90;;;;;;5041305;28;20024;-87
2023/04/18 05:32:51;;;;;;;12.93;8.18;;;6.40;99.90;;;;;;5042833;28;20389;-86
2023/04/18 05:35:17;;;;;;;12.45;7.50;;;6.50;99.90;;;;;;5047273;28;20079;-88
2023/04/18 05:37:42;;;;;;;11.70;7.85;;;6.60;99.90;;;;;;5043100;28;20440;-88
2023/04/18 05:40:09;;;;;;;13.80;8.40;;;6.70;99.90;;;;;;5049794;28;20056;-87
2023/04/18 05:42:34;;;;;;;15.52;8.35;;;6.80;99.90;;;;;;5050833;28;20017;-88
2023/04/18 05:45:00;;;;;;;14.35;8.35;;;6.90;99.90;;;;;;5053617;28;20036;-87
2023/04/18 05:47:27;;;;;;;13.93;8.07;;;7.00;99.90;;;;;;5047251;28;20120;-87
2023/04/18 05:49:53;;;;;;;14.77;7.93;;;7.10;99.90;;;;;;5052814;28;20032;-87
2023/04/18 05:52:19;;;;;;;11.88;7.38;;;7.20;99.90;;;;;;5054712;28;20086;-87
2023/04/18 05:54:44;;;;;;;14.93;8.07;;;7.20;99.90;;;;;;5047804;28;20131;-87
2023/04/18 05:57:10;;;;;;;12.10;7.07;;;7.30;99.90;;;;;;5053212;28;20035;-87
2023/04/18 05:59:36;;;;;;;14.10;8.38;;;7.40;99.90;;;;;;5046265;28;20036;-87
2023/04/18 06:02:01;;;;;;;12.98;8.60;;;7.50;99.90;;;;;;5053526;28;20024;-87
2023/04/18 06:04:27;;;;;;;13.15;8.27;;;7.50;99.90;;;;;;5052828;28;20025;-87
2023/04/18 06:06:52;;;;;;;14.68;8.07;;;7.60;99.90;;;;;;5054665;28;20501;-87
2023/04/18 06:09:18;;;;;;;14.95;8.45;;;7.60;99.90;;;;;;5054928;28;20029;-87
2023/04/18 06:11:44;;;;;;;12.35;8.32;;;7.60;99.90;;;;;;5054948;28;20496;-87
2023/04/18 06:14:09;;;;;;;13.73;8.68;;;7.70;99.90;;;;;;5039187;28;20111;-86
2023/04/18 06:16:36;;;;;;;15.32;8.23;;;7.70;99.90;;;;;;5047630;28;20036;-87
2023/04/18 06:19:02;;;;;;;14.88;8.77;;;7.80;99.90;;;;;;5051506;28;20055;-87
2023/04/18 06:21:27;;;;;;;13.98;8.40;;;7.80;99.90;;;;;;5069121;28;20021;-87
2023/04/18 06:23:53;;;;;;;14.02;8.38;;;7.90;99.90;;;;;;5048427;28;20063;-87
2023/04/18 06:26:19;;;;;;;16.38;8.77;;;8.00;99.90;;;;;;5047431;28;20043;-88
2023/04/18 06:28:44;;;;;;;11.90;8.35;;;8.10;99.90;;;;;;5051875;28;20036;-88
2023/04/18 06:31:10;;;;;;;13.95;8.43;;;8.20;99.90;;;;;;5051273;28;20017;-86
2023/04/18 06:33:36;;;;;;;14.18;8.70;;;8.30;99.90;;;;;;5051775;28;20041;-87
2023/04/18 06:36:03;;;;;;;12.57;7.57;;;8.30;99.90;;;;;;5050086;28;20043;-87
2023/04/18 06:38:28;;;;;;;12.15;7.90;;;8.40;99.90;;;;;;5051745;28;20392;-87
2023/04/18 06:40:54;;;;;;;12.30;8.45;;;8.40;99.90;;;;;;5050747;28;20059;-87
2023/04/18 06:43:20;;;;;;;12.98;8.13;;;8.50;99.90;;;;;;5049845;28;20025;-87
2023/04/18 06:45:46;;;;;;;13.40;7.88;;;8.60;99.90;;;;;;5051736;28;20021;-87
2023/04/18 06:48:12;;;;;;;15.20;7.45;;;8.70;99.90;;;;;;5051260;28;20048;-87
2023/04/18 06:50:37;;;;;;;14.40;8.52;;;8.80;99.90;;;;;;5048463;28;20059;-87
2023/04/18 06:53:03;;;;;;;11.88;7.20;;;8.90;99.90;;;;;;5044565;28;20057;-88
2023/04/18 06:55:28;;;;;;;12.80;7.78;;;8.90;99.90;;;;;;5036996;28;20060;-87
2023/04/18 06:57:54;;;;;;;13.50;8.43;;;8.90;99.90;;;;;;5042470;28;20021;-86
2023/04/18 07:00:20;;;;;;;11.55;7.40;;;8.80;99.90;;;;;;5042385;28;20056;-87
2023/04/18 07:02:45;;;;;;;10.45;7.30;;;8.70;99.90;;;;;;5043010;28;20025;-86
2023/04/18 07:05:11;;;;;;;13.13;7.72;;;8.70;99.90;;;;;;5047883;28;20025;-86
2023/04/18 07:07:39;;;;;;;13.75;7.72;;;8.60;99.90;;;;;;5048804;28;20024;-87
2023/04/18 07:10:08;;;;;;;13.65;8.10;;;8.40;99.90;;;;;;5046104;28;20047;-87
2023/04/18 07:12:34;;;;;;;11.52;7.00;;;8.40;99.90;;;;;;5052176;28;20036;-87
2023/04/18 07:15:00;;;;;;;11.77;7.85;;;8.40;99.90;;;;;;5050511;28;20032;-87
2023/04/18 07:17:25;;;;;;;11.60;7.28;;;8.30;99.90;;;;;;5049856;28;20485;-88
2023/04/18 07:19:51;;;;;;;14.20;7.78;;;8.30;99.90;;;;;;5050555;28;20055;-87
2023/04/18 07:22:16;;;;;;;12.80;7.10;;;8.40;99.90;;;;;;5051169;28;20468;-87
2023/04/18 07:24:42;;;;;;;11.50;7.35;;;8.50;99.90;;;;;;5051615;28;20021;-86
2023/04/18 07:27:08;;;;;;;13.45;7.53;;;8.60;99.90;;;;;;5051742;28;20048;-86
2023/04/18 07:29:34;;;;;;;12.57;7.40;;;8.70;99.90;;;;;;5050779;28;20098;-87
2023/04/18 07:32:00;;;;;;;13.52;8.18;;;8.80;99.90;;;;;;5053725;28;20025;-88
2023/04/18 07:34:28;;;;;;;12.65;8.38;;;8.90;99.90;;;;;;5051533;28;20044;-88
2023/04/18 07:36:57;;;;;;;12.40;7.90;;;9.00;99.90;;;;;;5049428;28;20022;-86
2023/04/18 07:39:22;;;;;;;10.73;6.80;;;9.10;99.90;;;;;;5043762;28;20032;-87
2023/04/18 07:41:48;;;;;;;11.70;7.57;;;9.20;99.90;;;;;;5053382;28;20021;-87
2023/04/18 07:44:14;;;;;;;12.75;7.63;;;9.20;99.90;;;;;;5051071;28;20068;-87
2023/04/18 07:46:39;;;;;;;10.82;6.97;;;9.30;99.90;;;;;;5046427;28;20025;-87
2023/04/18 07:49:05;;;;;;;12.32;7.22;;;9.40;99.90;;;;;;5053262;28;20029;-86
2023/04/18 07:51:31;;;;;;;11.00;7.05;;;9.50;99.90;;;;;;5053795;28;20025;-86
2023/04/18 07:53:57;;;;;;;9.52;6.32;;;9.60;99.90;;;;;;5053358;28;20033;-86
2023/04/18 07:56:23;;;;;;;9.82;6.13;;;9.70;99.90;;;;;;5053246;28;20029;-87
2023/04/18 07:58:49;;;;;;;9.05;6.38;;;9.70;99.90;;;;;;5035112;28;20104;-87
2023/04/18 08:01:17;;;;;;;9.45;6.15;;;9.70;99.90;;;;;;5051168;28;20057;-87
2023/04/18 08:03:43;;;;;;;11.10;6.80;;;9.70;99.90;;;;;;5053470;28;20119;-87
2023/04/18 08:06:08;;;;;;;9.20;5.68;;;9.70;99.90;;;;;;5053452;28;20072;-86
2023/04/18 08:08:34;;;;;;;12.82;6.38;;;9.80;99.90;;;;;;5056463;28;20124;-87
2023/04/18 08:11:00;;;;;;;10.68;6.53;;;9.80;99.90;;;;;;5056391;28;20462;-87
2023/04/18 08:13:26;;;;;;;9.27;6.38;;;9.90;99.90;;;;;;5055934;28;20033;-88
2023/04/18 08:15:51;;;;;;;9.38;6.47;;;9.90;99.90;;;;;;5044325;28;20079;-88
2023/04/18 08:18:18;;;;;;;10.90;6.97;;;10.00;99.90;;;;;;5056194;28;20033;-87
2023/04/18 08:20:44;;;;;;;9.63;6.40;;;10.10;99.90;;;;;;5055566;28;20017;-87
2023/04/18 08:23:09;;;;;;;8.07;5.90;;;10.20;99.90;;;;;;5055175;28;20035;-87
2023/04/18 08:25:35;;;;;;;10.18;5.80;;;10.30;99.90;;;;;;5056555;28;20436;-86
2023/04/18 08:28:01;;;;;;;8.45;5.93;;;10.50;99.90;;;;;;5057222;28;20029;-86
2023/04/18 08:30:27;;;;;;;10.57;6.40;;;10.70;99.90;;;;;;5040494;28;20064;-85
2023/04/18 08:32:52;;;;;;;8.32;5.28;;;10.90;99.90;;;;;;5056516;28;20037;-86
2023/04/18 08:35:18;;;;;;;8.57;5.20;;;10.90;99.90;;;;;;5060080;28;20052;-86
2023/04/18 08:37:44;;;;;;;7.97;5.40;;;11.00;99.90;;;;;;5058704;28;20544;-86
2023/04/18 08:40:09;;;;;;;12.35;5.88;;;11.00;99.90;;;;;;5055398;28;20438;-85
2023/04/18 08:42:37;;;;;;;11.40;6.15;;;11.10;99.90;;;;;;5055225;28;20078;-86
2023/04/18 08:45:04;;;;;;;8.50;5.35;;;11.10;99.90;;;;;;5049406;28;20026;-86
2023/04/18 08:47:29;;;;;;;9.15;5.88;;;11.10;99.90;;;;;;5038363;28;20021;-86
2023/04/18 08:49:56;;;;;;;6.90;4.53;;;11.20;99.90;;;;;;5056718;28;20025;-86
2023/04/18 08:52:22;;;;;;;8.23;5.38;;;11.30;99.90;;;;;;5055117;28;20518;-86
2023/04/18 08:54:49;;;;;;;8.02;4.72;;;11.50;99.90;;;;;;5055888;28;20045;-88
2023/04/18 08:57:15;;;;;;;7.97;5.53;;;11.60;99.90;;;;;;5056246;28;20079;-87
2023/04/18 08:59:44;;;;;;;7.75;4.93;;;11.90;99.90;;;;;;5056147;28;20051;-88
2023/04/18 09:02:14;;;;;;;6.78;4.65;;;12.10;99.90;;;;;;5051103;28;20489;-88
2023/04/18 09:04:43;;;;;;;5.55;3.92;;;12.20;99.90;;;;;;5051754;28;20052;-88
2023/04/18 09:07:14;;;;;;;6.38;4.60;;;12.10;99.90;;;;;;5051782;28;20025;-88
2023/04/18 09:09:52;;;;;;;7.95;4.75;;;11.80;99.90;;;;;;5049961;28;20476;-88
2023/04/18 09:12:24;;;;;;;6.55;4.38;;;11.70;99.90;;;;;;5035678;28;20060;-89
2023/04/18 09:14:53;;;;;;;6.40;5.18;;;11.50;99.90;;;;;;5052234;28;20039;-88
2023/04/18 09:17:35;;;;;;;5.97;4.57;;;11.50;99.90;;;;;;5054495;28;20473;-87
2023/04/18 09:20:05;;;;;;;6.00;4.40;;;11.70;99.90;;;;;;5053594;28;20055;-88
2023/04/18 09:22:56;;;;;;;5.30;4.25;;;11.70;99.90;;;;;;5054357;28;20469;-87
2023/04/18 09:25:43;;;;;;;7.47;4.70;;;11.80;99.90;;;;;;5046634;28;20048;-87
2023/04/18 09:28:22;;;;;;;9.30;5.10;;;11.90;99.90;;;;;;5051159;28;20021;-88
2023/04/18 09:30:50;;;;;;;6.55;4.65;;;12.00;99.90;;;;;;5053696;28;20020;-87
2023/04/18 09:33:16;;;;;;;6.80;4.60;;;12.00;99.90;;;;;;5050733;28;20484;-88
2023/04/18 09:35:41;;;;;;;7.13;4.75;;;12.20;99.90;;;;;;5049830;28;20067;-87
2023/04/18 09:38:07;;;;;;;6.78;5.15;;;12.20;99.90;;;;;;5056953;28;20028;-87
2023/04/18 09:40:33;;;;;;;6.30;4.50;;;12.20;99.90;;;;;;5045683;28;20034;-87
2023/04/18 09:42:59;;;;;;;8.25;5.22;;;12.10;99.90;;;;;;5053109;28;20096;-87
2023/04/18 09:45:25;;;;;;;6.10;4.70;;;12.00;99.90;;;;;;5049035;28;20036;-87
2023/04/18 09:47:52;;;;;;;7.32;5.50;;;12.10;99.90;;;;;;5054322;28;20021;-87
2023/04/18 09:50:19;;;;;;;7.78;4.40;;;12.10;99.90;;;;;;5054120;28;20029;-87
2023/04/18 09:52:46;;;;;;;6.18;4.35;;;12.00;99.90;;;;;;5052083;28;20052;-87
2023/04/18 09:55:17;;;;;;;5.55;3.92;;;11.90;99.90;;;;;;5053684;28;20402;-86
2023/04/18 09:57:45;;;;;;;7.63;4.50;;;12.00;99.90;;;;;;5053188;28;20052;-87
2023/04/18 10:00:16;;;;;;;7.45;4.97;;;12.00;99.90;;;;;;5053355;28;20029;-86
2023/04/18 10:02:50;;;;;;;6.95;4.50;;;12.00;99.90;;;;;;5039810;28;20018;-86
2023/04/18 10:05:17;;;;;;;9.65;4.32;;;12.10;99.90;;;;;;5055800;28;20040;-86
2023/04/18 10:07:45;;;;;;;6.43;4.28;;;12.20;99.90;;;;;;5046919;28;20049;-88
2023/04/18 10:10:11;;;;;;;6.43;4.07;;;12.20;99.90;;;;;;5044707;28;20033;-88
2023/04/18 10:12:38;;;;;;;6.68;4.13;;;12.20;99.90;;;;;;5043752;28;20024;-87
2023/04/18 10:15:05;;;;;;;6.65;3.78;;;12.20;99.90;;;;;;5052703;28;20037;-87
2023/04/18 10:17:44;;;;;;;6.72;4.05;;;12.20;99.90;;;;;;5040442;28;20117;-85
2023/04/18 10:20:16;;;;;;;7.25;4.38;;;12.30;99.90;;;;;;5051153;28;20021;-87
2023/04/18 10:22:42;;;;;;;6.40;4.18;;;12.50;99.90;;;;;;5048105;28;20036;-88
2023/04/18 10:25:08;;;;;;;5.72;3.92;;;12.50;99.90;;;;;;5046133;28;20037;-87
2023/04/18 10:27:54;;;;;;;5.95;3.83;;;12.50;99.90;;;;;;5051733;28;20448;-87
2023/04/18 10:30:43;;;;;;;6.18;3.95;;;12.60;99.90;;;;;;5050248;28;20187;-88
2023/04/18 10:33:33;;;;;;;6.95;3.53;;;12.60;99.90;;;;;;5047201;28;20156;-88
2023/04/18 10:36:07;;;;;;;5.90;3.63;;;12.70;99.90;;;;;;5032402;28;20477;-87
2023/04/18 10:38:43;;;;;;;6.30;4.32;;;12.80;99.90;;;;;;5032420;28;20022;-87
2023/04/18 10:41:15;;;;;;;6.97;4.50;;;13.00;99.90;;;;;;5041012;28;20079;-87
2023/04/18 10:44:10;;;;;;;6.18;3.42;;;12.90;99.90;;;;;;5052078;28;20036;-87
2023/04/18 10:46:51;;;;;;;4.80;3.40;;;12.90;99.90;;;;;;5053624;28;20029;-87
2023/04/18 10:49:18;;;;;;;6.45;3.50;;;13.10;99.90;;;;;;5051948;28;20020;-87
2023/04/18 10:51:45;;;;;;;6.53;3.47;;;13.10;99.90;;;;;;5052490;28;20021;-88
2023/04/18 10:54:16;;;;;;;7.43;4.30;;;13.00;99.90;;;;;;5051541;28;20079;-88
2023/04/18 10:56:52;;;;;;;6.47;4.43;;;12.80;99.90;;;;;;5053679;28;20040;-87
2023/04/18 10:59:20;;;;;;;6.75;4.32;;;12.60;99.90;;;;;;5049188;28;20033;-87
2023/04/18 11:01:49;;;;;;;7.40;5.30;;;12.60;99.90;;;;;;5050130;28;20350;-87
2023/04/18 11:04:15;;;;;;;5.97;4.05;;;12.50;99.90;;;;;;5051301;28;20029;-87
2023/04/18 11:06:49;;;;;;;6.68;4.53;;;12.50;99.90;;;;;;5053510;28;20040;-87
2023/04/18 11:09:15;;;;;;;5.63;4.40;;;12.50;99.90;;;;;;5051837;28;20460;-87
2023/04/18 11:11:41;;;;;;;7.43;4.78;;;12.50;99.90;;;;;;5051753;28;20020;-88
2023/04/18 11:14:07;;;;;;;6.15;4.57;;;12.40;99.90;;;;;;5051632;28;20052;-87
2023/04/18 11:16:33;;;;;;;7.65;5.35;;;12.30;99.90;;;;;;5051620;28;20028;-87
2023/04/18 11:18:59;;;;;;;6.43;4.82;;;12.10;99.90;;;;;;5052785;28;20114;-87
2023/04/18 11:21:28;;;;;;;7.18;5.30;;;12.10;99.90;;;;;;5050794;28;20115;-87
2023/04/18 11:23:57;;;;;;;6.53;5.22;;;12.20;99.90;;;;;;5048134;28;20036;-87
2023/04/18 11:26:27;;;;;;;6.85;5.18;;;12.20;99.90;;;;;;5050851;28;20021;-87
2023/04/18 11:28:57;;;;;;;8.50;4.82;;;12.40;99.90;;;;;;5053081;28;20036;-86
2023/04/18 11:31:24;;;;;;;8.63;6.13;;;12.50;99.90;;;;;;5039616;28;20021;-88
2023/04/18 11:33:50;;;;;;;9.40;5.78;;;12.60;99.90;;;;;;5052027;28;20029;-88
2023/04/18 11:36:16;;;;;;;11.27;6.70;;;12.60;99.90;;;;;;5050942;28;20074;-87
2023/04/18 11:38:42;;;;;;;7.05;4.57;;;12.60;99.90;;;;;;5048751;28;20064;-88
2023/04/18 11:41:13;;;;;;;10.43;5.97;;;12.50;99.90;;;;;;5051321;28;20025;-88
2023/04/18 11:43:42;;;;;;;8.05;5.65;;;12.50;99.90;;;;;;5035376;28;20025;-87
2023/04/18 11:46:07;;;;;;;11.43;6.85;;;12.50;99.90;;;;;;5055824;28;20100;-88
2023/04/18 11:48:38;;;;;;;9.48;5.93;;;12.50;99.90;;;;;;5052099;28;20064;-87
2023/04/18 11:51:05;;;;;;;8.32;5.93;;;12.60;99.90;;;;;;5050769;28;20064;-88
2023/04/18 11:53:35;;;;;;;9.57;6.38;;;12.70;99.90;;;;;;5042385;28;20541;-88
2023/04/18 11:56:02;;;;;;;10.55;6.57;;;12.70;99.90;;;;;;5043761;28;20041;-86
2023/04/18 11:58:35;;;;;;;7.95;5.95;;;12.70;99.90;;;;;;5054773;28;20028;-86
2023/04/18 12:01:16;;;;;;;8.35;6.00;;;12.70;99.90;;;;;;5044043;28;20017;-87
2023/04/18 12:03:43;;;;;;;9.18;6.13;;;12.70;99.90;;;;;;5070180;28;20106;-87
2023/04/18 12:06:08;;;;;;;10.68;6.43;;;12.60;99.90;;;;;;5056305;28;20021;-88
2023/04/18 12:08:34;;;;;;;8.68;6.28;;;12.60;99.90;;;;;;5055082;28;20040;-87
2023/04/18 12:11:00;;;;;;;9.50;6.50;;;12.60;99.90;;;;;;5055919;28;20040;-88
2023/04/18 12:13:31;;;;;;;10.40;7.28;;;12.60;99.90;;;;;;5044963;28;20452;-87
2023/04/18 12:15:57;;;;;;;8.98;6.47;;;12.70;99.90;;;;;;5054078;28;20404;-87
2023/04/18 12:18:23;;;;;;;9.55;6.88;;;12.80;99.90;;;;;;5056647;28;20025;-87
2023/04/18 12:20:51;;;;;;;9.05;6.97;;;12.80;99.90;;;;;;5055573;28;20025;-86
2023/04/18 12:23:34;;;;;;;10.32;7.43;;;12.80;99.90;;;;;;5056086;28;20056;-87
2023/04/18 12:26:02;;;;;;;11.57;7.95;;;12.90;99.90;;;;;;5048730;28;20021;-87
2023/04/18 12:28:28;;;;;;;8.43;6.80;;;12.80;99.90;;;;;;5036230;28;20401;-87
2023/04/18 12:30:54;;;;;;;10.25;6.85;;;12.90;99.90;;;;;;5068713;28;20033;-85
2023/04/18 12:33:20;;;;;;;9.32;6.78;;;13.10;99.90;;;;;;5053675;28;20037;-87
2023/04/18 12:35:45;;;;;;;11.75;7.78;;;13.30;99.90;;;;;;5055470;28;20029;-87
2023/04/18 12:38:11;;;;;;;12.75;8.23;;;13.50;99.90;;;;;;5050856;28;20025;-87
2023/04/18 12:40:40;;;;;;;12.93;8.57;;;13.40;99.90;;;;;;5050577;28;20382;-86
2023/04/18 12:43:06;;;;;;;10.98;8.25;;;13.40;99.90;;;;;;5055258;28;20021;-87
2023/04/18 12:45:32;;;;;;;12.90;9.00;;;13.40;99.90;;;;;;5054382;28;20052;-88